N8QVQ Weather Reports


time (UTC)temp
F
wind
direction
speed
knots
gust
knots
rain 1hr
in
rain 24hr
in
rain mn
in
humidity
%
barometer
mb
20220629031847 60 125 0.0 12.2 0.05 0.30 0.30 97 1015.1
20220629031147 60 154 0.0 12.2 0.05 0.30 0.30 97 1015.4
20220629030447 60 137 0.9 12.2 0.04 0.29 0.29 96 1015.5
20220629025747 60 127 0.0 12.2 0.03 0.28 0.28 96 1015.8
20220629025047 60 128 0.0 12.2 0.03 0.28 0.28 96 1016.0
20220629024348 60 135 0.0 12.2 0.02 0.27 0.27 96 1016.0
20220629023648 60 76 0.0 12.2 0.01 0.26 0.26 96 1016.0
20220629022948 60 26 0.9 12.2 0.02 0.26 0.26 96 1016.3
20220629022248 60 86 0.0 12.2 0.02 0.26 0.26 96 1016.2
20220629021546 60 86 0.0 12.2 0.02 0.25 0.25 96 1016.0
20220629020847 60 96 0.0 12.2 0.02 0.25 0.25 95 1015.8
20220629020147 60 315 0.9 12.2 0.03 0.25 0.25 95 1015.6
20220629015447 60 148 0.0 12.2 0.05 0.25 0.25 95 1015.7
20220629014747 60 178 1.7 12.2 0.07 0.25 0.25 95 1015.4
20220629014048 60 106 0.0 12.2 0.09 0.25 0.25 95 1015.4
20220629013347 60 149 0.0 12.2 0.14 0.25 0.25 94 1015.3
20220629012647 60 124 0.9 12.2 0.18 0.24 0.24 94 1015.5
20220629011947 61 69 0.9 12.2 0.18 0.23 0.23 94 1016.0
20220629011247 61 134 0.9 12.2 0.19 0.23 0.23 94 1016.0
20220629010547 61 81 0.0 12.2 0.19 0.23 0.23 94 1016.2
20220629005848 61 69 0.9 12.2 0.18 0.21 0.21 94 1016.2
20220629005148 62 193 0.9 12.2 0.17 0.19 0.19 94 1016.0
20220629004448 62 70 0.9 12.2 0.15 0.17 0.17 93 1016.3
20220629003746 62 71 1.7 12.2 0.12 0.14 0.14 92 1016.6
20220629003047 63 155 0.0 12.2 0.07 0.09 0.09 91 1016.0
20220629002348 63 134 0.0 12.2 0.04 0.05 0.05 90 1015.5
20220629001648 64 173 2.6 12.2 0.05 0.05 0.05 88 1015.3
20220629000948 64 184 1.7 12.2 0.04 0.04 0.04 86 1015.0
20220629000248 65 167 4.3 12.2 0.03 0.03 0.03 85 1015.1
20220628235548 65 149 2.6 12.2 0.03 0.03 0.03 84 1014.9
20220628234848 65 131 0.0 12.2 0.02 0.02 0.02 86 1015.0
20220628234147 66 155 1.7 12.2 0.02 0.02 0.02 83 1014.6
20220628233447 66 98 0.0 12.2 0.02 0.02 0.02 85 1015.0
20220628232747 67 126 0.0 12.2 0.01 0.01 0.01 77 1014.8
20220628232047 70 2 4.3 12.2 0.00 0.00 0.00 72 1015.2
20220628231347 73 59 4.3 12.2 0.00 0.00 0.00 58 1014.9
20220628230647 74 323 1.7 12.2 0.00 0.00 0.00 55 1014.4
20220628225947 75 142 1.7 12.2 0.00 0.00 0.00 53 1014.3
20220628225248 75 317 1.7 12.2 0.00 0.00 0.00 51 1014.0
20220628224548 76 157 2.6 12.2 0.00 0.00 0.00 50 1013.9
20220628223848 77 290 2.6 12.2 0.00 0.00 0.00 50 1013.9
20220628223148 77 14 0.9 12.2 0.00 0.00 0.00 50 1013.8
20220628222448 78 339 1.7 12.2 0.00 0.00 0.00 49 1013.7
20220628221748 78 355 0.9 12.2 0.00 0.00 0.00 49 1013.7
20220628221049 77 207 2.6 12.2 0.00 0.00 0.00 49 1013.9
20220628220347 77 214 1.7 12.2 0.00 0.00 0.00 49 1014.0
20220628215647 78 264 1.7 12.2 0.00 0.00 0.00 48 1014.0
20220628214947 77 94 0.0 12.2 0.00 0.00 0.00 48 1014.0
20220628214247 78 39 1.7 12.2 0.00 0.00 0.00 48 1013.8
20220628213547 78 47 0.9 12.2 0.00 0.00 0.00 48 1013.8
20220628212847 79 240 2.6 12.2 0.00 0.00 0.00 46 1013.6
20220628212148 79 112 0.9 12.2 0.00 0.00 0.00 46 1013.5
20220628211448 80 193 2.6 12.2 0.00 0.00 0.00 44 1013.4
20220628210748 80 152 6.1 12.2 0.00 0.00 0.00 43 1013.5
20220628210048 80 269 1.7 12.2 0.00 0.00 0.00 44 1013.5
20220628205348 80 265 1.7 12.2 0.00 0.00 0.00 43 1013.6
20220628204648 81 194 1.7 12.2 0.00 0.00 0.00 43 1013.8
20220628203949 82 312 4.3 12.2 0.00 0.00 0.00 41 1013.8
20220628203249 83 349 2.6 12.2 0.00 0.00 0.00 39 1013.8
20220628202549 83 128 0.9 12.2 0.00 0.00 0.00 40 1014.0
20220628201849 83 70 0.9 12.2 0.00 0.00 0.00 39 1014.0
20220628201147 84 112 1.7 12.2 0.00 0.00 0.00 40 1014.0
20220628200447 83 163 1.7 12.2 0.00 0.00 0.00 40 1014.1
20220628195748 80 286 0.9 12.2 0.00 0.00 0.00 44 1014.5
20220628195049 81 139 2.6 12.2 0.00 0.00 0.00 41 1014.4
20220628194349 83 223 0.9 12.2 0.00 0.00 0.00 41 1014.1
20220628193649 83 143 5.2 12.2 0.00 0.00 0.00 39 1014.3
20220628192949 83 252 5.2 12.2 0.00 0.00 0.00 39 1014.4
20220628192247 83 264 2.6 12.2 0.00 0.00 0.00 39 1014.5
20220628191548 82 347 1.7 12.2 0.00 0.00 0.00 41 1014.6
20220628190849 83 307 2.6 12.2 0.00 0.00 0.00 40 1014.6
20220628190149 81 327 1.7 12.2 0.00 0.00 0.00 40 1014.8
20220628185449 82 5 1.7 12.2 0.00 0.00 0.00 40 1014.8
20220628184749 82 194 1.7 12.2 0.00 0.00 0.00 40 1014.9
20220628184049 81 2 1.7 12.2 0.00 0.00 0.00 42 1015.0
20220628183348 82 348 1.7 12.2 0.00 0.00 0.00 41 1015.0
20220628182648 83 206 1.7 12.2 0.00 0.00 0.00 41 1014.9
20220628181949 82 29 4.3 12.2 0.00 0.00 0.00 40 1015.0
20220628181249 83 93 2.6 12.2 0.00 0.00 0.00 41 1014.9
20220628180549 84 44 2.6 12.2 0.00 0.00 0.00 40 1015.2
20220628175849 83 202 4.3 12.2 0.00 0.00 0.00 41 1015.0
20220628175149 81 165 4.3 12.2 0.00 0.00 0.00 42 1015.4
20220628174447 79 167 2.6 11.3 0.00 0.00 0.00 45 1015.4
20220628173749 80 184 2.6 11.3 0.00 0.00 0.00 45 1015.6
20220628173048 82 197 1.7 11.3 0.00 0.00 0.00 43 1015.4
20220628172348 80 152 4.3 11.3 0.00 0.00 0.00 44 1015.7
20220628171648 80 200 1.7 11.3 0.00 0.00 0.00 44 1015.7
20220628170948 81 177 2.6 11.3 0.00 0.00 0.00 43 1015.7
20220628170248 80 209 4.3 11.3 0.00 0.00 0.00 44 1016.0
20220628165548 80 120 2.6 11.3 0.00 0.00 0.00 44 1015.9
20220628164849 80 182 4.3 11.3 0.00 0.00 0.00 44 1016.0
20220628164149 79 179 4.3 11.3 0.00 0.00 0.00 46 1016.1
20220628163449 79 207 4.3 11.3 0.00 0.00 0.00 45 1016.2
20220628162749 80 123 6.1 11.3 0.00 0.00 0.00 46 1016.2
20220628162049 79 104 2.6 11.3 0.00 0.00 0.00 46 1016.3
20220628161349 79 268 0.9 11.3 0.00 0.00 0.00 46 1016.4
20220628160648 79 39 1.7 11.3 0.00 0.00 0.00 47 1016.5
20220628155950 79 194 2.6 11.3 0.00 0.00 0.00 48 1016.5
20220628155248 77 134 4.3 11.3 0.00 0.00 0.00 49 1016.3
20220628154548 76 45 2.6 11.3 0.00 0.00 0.00 50 1016.6
20220628153848 76 346 2.6 11.3 0.00 0.00 0.00 50 1016.3
20220628153148 76 189 4.3 11.3 0.00 0.00 0.00 53 1016.4
20220628152448 76 162 4.3 11.3 0.00 0.00 0.00 53 1016.5
20220628151749 74 189 5.2 11.3 0.00 0.00 0.00 56 1016.7
20220628151049 71 106 2.6 11.3 0.00 0.00 0.00 58 1016.9
20220628150349 73 202 4.3 11.3 0.00 0.00 0.00 58 1017.0
20220628145649 74 173 2.6 11.3 0.00 0.00 0.00 55 1016.9
20220628144949 74 127 0.9 11.3 0.00 0.00 0.00 54 1016.9
20220628144249 74 53 0.9 11.3 0.00 0.00 0.00 54 1016.8
20220628143550 73 133 1.7 11.3 0.00 0.00 0.00 55 1016.9
20220628142850 73 94 1.7 11.3 0.00 0.00 0.00 55 1017.0
20220628142150 72 56 2.6 11.3 0.00 0.00 0.00 56 1017.2
20220628141448 72 163 0.9 11.3 0.00 0.00 0.00 55 1017.2
20220628140748 71 104 0.9 11.3 0.00 0.00 0.00 57 1017.2
20220628140048 71 199 4.3 11.3 0.00 0.00 0.00 57 1017.2
20220628135348 70 61 0.9 11.3 0.00 0.00 0.00 59 1017.2
20220628134649 69 151 1.7 11.3 0.00 0.00 0.00 58 1017.2
20220628133949 69 140 1.7 11.3 0.00 0.00 0.00 58 1017.2
20220628133248 69 162 1.7 11.3 0.00 0.00 0.00 58 1017.5
20220628132548 69 199 0.9 11.3 0.00 0.00 0.00 60 1017.4
20220628131848 69 176 1.7 11.3 0.00 0.00 0.00 59 1017.4
20220628131148 68 98 0.9 11.3 0.00 0.00 0.00 59 1017.2
20220628130449 67 102 1.7 11.3 0.00 0.00 0.00 61 1017.5
20220628125749 67 68 0.9 11.3 0.00 0.00 0.00 62 1017.5
20220628125049 66 114 1.7 11.3 0.00 0.00 0.00 63 1017.5
20220628124349 66 165 2.6 7.8 0.00 0.00 0.00 64 1017.6
20220628123649 66 168 0.9 7.8 0.00 0.00 0.00 65 1017.3
20220628122948 65 335 0.9 7.8 0.00 0.00 0.00 65 1017.4
20220628122248 64 159 2.6 7.8 0.00 0.00 0.00 66 1017.6
20220628121549 64 142 0.9 7.8 0.00 0.00 0.00 66 1017.5
20220628120849 63 182 0.9 7.8 0.00 0.00 0.00 67 1017.4
20220628120149 62 116 2.6 7.8 0.00 0.00 0.00 67 1017.5
20220628115449 62 127 0.9 7.8 0.00 0.00 0.00 67 1017.4
20220628114749 61 176 1.7 7.8 0.00 0.00 0.00 67 1017.6
20220628114049 61 232 0.9 7.8 0.00 0.00 0.00 67 1017.5
20220628113350 60 168 2.6 7.8 0.00 0.00 0.00 68 1017.5
20220628112650 59 154 1.7 7.0 0.00 0.00 0.00 69 1017.4
20220628111950 59 304 0.9 7.0 0.00 0.00 0.00 69 1017.5
20220628111250 58 58 1.7 7.0 0.00 0.00 0.00 69 1017.5
20220628110550 58 125 1.7 7.0 0.00 0.00 0.00 71 1017.3
20220628105850 57 230 1.7 7.0 0.00 0.00 0.00 73 1017.4
20220628105148 57 145 0.9 7.0 0.00 0.00 0.00 73 1017.2
20220628104449 57 182 1.7 7.0 0.00 0.00 0.00 72 1017.2
20220628103750 56 154 2.6 7.0 0.00 0.00 0.00 73 1017.3
20220628103050 56 154 2.6 7.0 0.00 0.00 0.00 73 1017.1
20220628102350 56 171 1.7 5.2 0.00 0.00 0.00 74 1017.1
20220628101650 56 107 0.0 5.2 0.00 0.00 0.00 74 1017.2
20220628100950 56 142 0.9 5.2 0.00 0.00 0.00 74 1017.2
20220628100249 56 358 1.7 5.2 0.00 0.00 0.00 75 1017.2
20220628095549 55 190 1.7 5.2 0.00 0.00 0.00 75 1017.2
20220628094849 55 133 0.9 5.2 0.00 0.00 0.00 77 1017.2
20220628094149 55 164 1.7 5.2 0.00 0.00 0.00 78 1017.2
20220628093449 55 150 0.9 5.2 0.00 0.00 0.00 79 1017.2
20220628092749 55 171 1.7 5.2 0.00 0.00 0.00 80 1017.2
20220628092049 55 157 1.7 5.2 0.00 0.00 0.00 82 1017.2
20220628091350 54 148 1.7 5.2 0.00 0.00 0.00 83 1017.2
20220628090650 54 150 0.0 5.2 0.00 0.00 0.00 85 1017.3
20220628085950 54 181 1.7 5.2 0.00 0.00 0.00 87 1017.4
20220628085250 54 134 1.7 5.2 0.00 0.00 0.00 87 1017.5
20220628084550 54 173 0.9 5.2 0.00 0.00 0.00 85 1017.5
20220628083850 54 138 0.9 5.2 0.00 0.00 0.00 85 1017.5
20220628083151 54 131 0.0 5.2 0.00 0.00 0.00 86 1017.5
20220628082451 54 147 0.0 4.3 0.00 0.00 0.00 87 1017.5
20220628081749 54 117 0.0 4.3 0.00 0.00 0.00 87 1017.8
20220628081049 54 166 0.9 2.6 0.00 0.00 0.00 87 1017.6
20220628080349 54 180 0.9 2.6 0.00 0.00 0.00 87 1017.5
20220628075649 54 118 0.0 1.7 0.00 0.00 0.00 86 1017.7
20220628074949 53 106 0.0 1.7 0.00 0.00 0.00 85 1017.4
20220628074250 53 109 0.9 1.7 0.00 0.00 0.00 84 1017.3
20220628073550 53 105 0.0 1.7 0.00 0.00 0.00 85 1017.6
20220628072850 53 114 0.0 1.7 0.00 0.00 0.00 84 1017.5
20220628072150 52 87 0.0 1.7 0.00 0.00 0.00 85 1017.3
20220628071450 52 123 0.0 1.7 0.00 0.00 0.00 86 1017.4
20220628070750 52 143 0.0 1.7 0.00 0.00 0.00 85 1017.5
20220628070051 50 114 0.0 1.7 0.00 0.00 0.00 88 1017.5
20220628065351 49 164 0.9 1.7 0.00 0.00 0.00 89 1017.4
20220628064651 48 162 0.0 0.0 0.00 0.00 0.00 92 1017.6
20220628063949 46 162 0.0 0.0 0.00 0.00 0.00 94 1017.5
20220628063249 46 162 0.0 0.0 0.00 0.00 0.00 96 1017.6
20220628062549 45 162 0.0 0.0 0.00 0.00 0.00 96 1017.6
20220628061850 45 162 0.0 0.0 0.00 0.00 0.00 96 1017.9
20220628061150 45 162 0.0 0.0 0.00 0.00 0.00 96 1017.8
20220628060450 45 162 0.0 0.0 0.00 0.00 0.00 97 1017.9
20220628055750 45 162 0.0 0.0 0.00 0.00 0.00 97 1017.9
20220628055050 45 162 0.0 0.0 0.00 0.00 0.00 96 1017.9
20220628054350 45 162 0.0 0.0 0.00 0.00 0.00 97 1017.9
20220628053650 45 162 0.0 0.0 0.00 0.00 0.00 97 1018.0
20220628052950 45 162 0.0 0.0 0.00 0.00 0.00 97 1017.9
20220628052251 45 162 0.0 0.0 0.00 0.00 0.00 96 1018.1
20220628051551 45 162 0.0 0.0 0.00 0.00 0.00 96 1017.9
20220628050851 46 162 0.0 0.0 0.00 0.00 0.00 96 1018.2
20220628050150 45 162 0.0 0.0 0.00 0.00 0.00 96 1017.9
20220628045449 45 162 0.0 0.0 0.00 0.00 0.00 96 1018.1
20220628044749 45 162 0.0 0.0 0.00 0.00 0.00 96 1018.1
20220628044050 46 162 0.0 0.0 0.00 0.00 0.00 96 1018.0
20220628043350 46 162 0.0 0.0 0.00 0.00 0.00 96 1018.2
20220628042650 46 162 0.0 0.0 0.00 0.00 0.00 96 1018.2
20220628041950 46 162 0.0 0.0 0.00 0.00 0.00 96 1018.1
20220628041250 46 162 0.0 0.0 0.00 0.00 0.00 96 1018.4
20220628040550 46 162 0.0 0.0 0.00 0.00 0.00 96 1018.4
20220628035850 46 162 0.0 14.8 0.00 0.00 0.00 95 1018.6
20220628035151 46 162 0.0 14.8 0.00 0.00 0.00 95 1018.5
20220628034451 47 162 0.0 14.8 0.00 0.00 0.00 95 1018.3
20220628033751 47 162 0.0 14.8 0.00 0.00 0.00 95 1018.3
20220628033051 47 162 0.0 14.8 0.00 0.00 0.00 95 1018.5